sensor_id;sensor_type;location;lat;lon;timestamp;P1;durP1;ratioP1;P2;durP2;ratioP2
11568;SDS011;5840;46.894;15.542;2023-12-22T00:01:53;6.17;;;5.60;;
11568;SDS011;5840;46.894;15.542;2023-12-22T00:04:20;7.50;;;6.80;;
11568;SDS011;5840;46.894;15.542;2023-12-22T00:06:49;5.50;;;5.10;;
11568;SDS011;5840;46.894;15.542;2023-12-22T00:09:17;5.90;;;4.87;;
11568;SDS011;5840;46.894;15.542;2023-12-22T00:11:44;3.50;;;3.30;;
11568;SDS011;5840;46.894;15.542;2023-12-22T00:14:11;3.63;;;3.40;;
11568;SDS011;5840;46.894;15.542;2023-12-22T00:16:38;3.03;;;2.83;;
11568;SDS011;5840;46.894;15.542;2023-12-22T00:19:05;2.40;;;2.30;;
11568;SDS011;5840;46.894;15.542;2023-12-22T00:21:32;2.60;;;2.40;;
11568;SDS011;5840;46.894;15.542;2023-12-22T00:24:00;2.20;;;2.10;;
11568;SDS011;5840;46.894;15.542;2023-12-22T00:26:27;1.80;;;1.70;;
11568;SDS011;5840;46.894;15.542;2023-12-22T00:28:54;2.13;;;2.03;;
11568;SDS011;5840;46.894;15.542;2023-12-22T00:31:21;2.33;;;2.23;;
11568;SDS011;5840;46.894;15.542;2023-12-22T00:33:48;2.40;;;2.20;;
11568;SDS011;5840;46.894;15.542;2023-12-22T00:36:14;2.80;;;2.60;;
11568;SDS011;5840;46.894;15.542;2023-12-22T00:38:43;2.80;;;2.60;;
11568;SDS011;5840;46.894;15.542;2023-12-22T00:41:11;2.93;;;2.60;;
11568;SDS011;5840;46.894;15.542;2023-12-22T00:43:38;2.97;;;2.77;;
11568;SDS011;5840;46.894;15.542;2023-12-22T00:46:05;2.57;;;2.37;;
11568;SDS011;5840;46.894;15.542;2023-12-22T00:48:32;3.00;;;2.67;;
11568;SDS011;5840;46.894;15.542;2023-12-22T00:50:59;3.13;;;2.93;;
11568;SDS011;5840;46.894;15.542;2023-12-22T00:53:25;2.40;;;2.20;;
11568;SDS011;5840;46.894;15.542;2023-12-22T00:55:52;2.60;;;2.50;;
11568;SDS011;5840;46.894;15.542;2023-12-22T00:58:20;4.23;;;3.90;;
11568;SDS011;5840;46.894;15.542;2023-12-22T01:00:47;4.27;;;3.97;;
11568;SDS011;5840;46.894;15.542;2023-12-22T01:03:14;3.07;;;2.87;;
11568;SDS011;5840;46.894;15.542;2023-12-22T01:05:41;3.10;;;2.80;;
11568;SDS011;5840;46.894;15.542;2023-12-22T01:08:08;2.07;;;1.97;;
11568;SDS011;5840;46.894;15.542;2023-12-22T01:10:35;2.40;;;2.30;;
11568;SDS011;5840;46.894;15.542;2023-12-22T01:13:02;5.00;;;4.50;;
11568;SDS011;5840;46.894;15.542;2023-12-22T01:15:30;3.47;;;3.17;;
11568;SDS011;5840;46.894;15.542;2023-12-22T01:17:57;2.87;;;2.67;;
11568;SDS011;5840;46.894;15.542;2023-12-22T01:20:24;2.43;;;2.23;;
11568;SDS011;5840;46.894;15.542;2023-12-22T01:22:51;2.40;;;2.30;;
11568;SDS011;5840;46.894;15.542;2023-12-22T01:25:18;2.60;;;2.40;;
11568;SDS011;5840;46.894;15.542;2023-12-22T01:27:45;2.40;;;2.30;;
11568;SDS011;5840;46.894;15.542;2023-12-22T01:30:12;3.07;;;2.87;;
11568;SDS011;5840;46.894;15.542;2023-12-22T01:32:41;3.07;;;2.87;;
11568;SDS011;5840;46.894;15.542;2023-12-22T01:35:08;2.87;;;2.67;;
11568;SDS011;5840;46.894;15.542;2023-12-22T01:37:35;1.93;;;1.83;;
11568;SDS011;5840;46.894;15.542;2023-12-22T01:40:03;2.10;;;2.00;;
11568;SDS011;5840;46.894;15.542;2023-12-22T01:42:30;2.57;;;2.37;;
11568;SDS011;5840;46.894;15.542;2023-12-22T01:44:57;2.57;;;2.47;;
11568;SDS011;5840;46.894;15.542;2023-12-22T01:47:24;2.17;;;2.07;;
11568;SDS011;5840;46.894;15.542;2023-12-22T01:49:53;1.87;;;1.77;;
11568;SDS011;5840;46.894;15.542;2023-12-22T01:52:20;1.47;;;1.43;;
11568;SDS011;5840;46.894;15.542;2023-12-22T01:54:48;1.80;;;1.70;;
11568;SDS011;5840;46.894;15.542;2023-12-22T01:57:16;1.40;;;1.40;;
11568;SDS011;5840;46.894;15.542;2023-12-22T01:59:45;1.23;;;1.23;;
11568;SDS011;5840;46.894;15.542;2023-12-22T02:02:14;1.37;;;1.37;;
11568;SDS011;5840;46.894;15.542;2023-12-22T02:04:41;1.30;;;1.30;;
11568;SDS011;5840;46.894;15.542;2023-12-22T02:07:10;1.17;;;1.17;;
11568;SDS011;5840;46.894;15.542;2023-12-22T02:09:37;1.23;;;1.23;;
11568;SDS011;5840;46.894;15.542;2023-12-22T02:12:04;1.20;;;1.10;;
11568;SDS011;5840;46.894;15.542;2023-12-22T02:14:31;1.00;;;0.80;;
11568;SDS011;5840;46.894;15.542;2023-12-22T02:17:02;0.80;;;0.80;;
11568;SDS011;5840;46.894;15.542;2023-12-22T02:19:38;0.87;;;0.83;;
11568;SDS011;5840;46.894;15.542;2023-12-22T02:22:08;0.60;;;0.60;;
11568;SDS011;5840;46.894;15.542;2023-12-22T02:24:39;0.80;;;0.80;;
11568;SDS011;5840;46.894;15.542;2023-12-22T02:27:09;0.80;;;0.80;;
11568;SDS011;5840;46.894;15.542;2023-12-22T02:29:43;0.93;;;0.80;;
11568;SDS011;5840;46.894;15.542;2023-12-22T02:32:17;0.70;;;0.70;;
11568;SDS011;5840;46.894;15.542;2023-12-22T02:34:49;0.70;;;0.70;;
11568;SDS011;5840;46.894;15.542;2023-12-22T02:37:18;0.83;;;0.83;;
11568;SDS011;5840;46.894;15.542;2023-12-22T02:39:49;0.70;;;0.70;;
11568;SDS011;5840;46.894;15.542;2023-12-22T02:42:16;0.70;;;0.70;;
11568;SDS011;5840;46.894;15.542;2023-12-22T02:44:45;0.80;;;0.80;;
11568;SDS011;5840;46.894;15.542;2023-12-22T02:47:12;0.70;;;0.70;;
11568;SDS011;5840;46.894;15.542;2023-12-22T02:49:39;0.80;;;0.80;;
11568;SDS011;5840;46.894;15.542;2023-12-22T02:52:05;0.80;;;0.80;;
11568;SDS011;5840;46.894;15.542;2023-12-22T02:54:32;0.80;;;0.80;;
11568;SDS011;5840;46.894;15.542;2023-12-22T02:57:01;0.90;;;0.90;;
11568;SDS011;5840;46.894;15.542;2023-12-22T02:59:28;0.87;;;0.87;;
11568;SDS011;5840;46.894;15.542;2023-12-22T03:04:22;1.03;;;1.03;;
11568;SDS011;5840;46.894;15.542;2023-12-22T03:06:49;0.90;;;0.90;;
11568;SDS011;5840;46.894;15.542;2023-12-22T03:09:16;0.80;;;0.80;;
11568;SDS011;5840;46.894;15.542;2023-12-22T03:11:43;0.80;;;0.80;;
11568;SDS011;5840;46.894;15.542;2023-12-22T03:14:11;0.90;;;0.90;;
11568;SDS011;5840;46.894;15.542;2023-12-22T03:16:39;1.00;;;1.00;;
11568;SDS011;5840;46.894;15.542;2023-12-22T03:19:06;0.80;;;0.80;;
11568;SDS011;5840;46.894;15.542;2023-12-22T03:21:33;0.90;;;0.90;;
11568;SDS011;5840;46.894;15.542;2023-12-22T03:24:00;1.00;;;1.00;;
11568;SDS011;5840;46.894;15.542;2023-12-22T03:26:27;0.90;;;0.90;;
11568;SDS011;5840;46.894;15.542;2023-12-22T03:28:53;0.80;;;0.80;;
11568;SDS011;5840;46.894;15.542;2023-12-22T03:31:22;1.10;;;1.00;;
11568;SDS011;5840;46.894;15.542;2023-12-22T03:33:49;1.00;;;1.00;;
11568;SDS011;5840;46.894;15.542;2023-12-22T03:36:15;1.00;;;1.00;;
11568;SDS011;5840;46.894;15.542;2023-12-22T03:38:42;0.90;;;0.90;;
11568;SDS011;5840;46.894;15.542;2023-12-22T03:41:09;0.90;;;0.90;;
11568;SDS011;5840;46.894;15.542;2023-12-22T03:43:36;0.90;;;0.90;;
11568;SDS011;5840;46.894;15.542;2023-12-22T03:46:03;0.87;;;0.87;;
11568;SDS011;5840;46.894;15.542;2023-12-22T03:48:31;1.00;;;1.00;;
11568;SDS011;5840;46.894;15.542;2023-12-22T03:50:58;1.00;;;1.00;;
11568;SDS011;5840;46.894;15.542;2023-12-22T03:53:25;0.90;;;0.90;;
11568;SDS011;5840;46.894;15.542;2023-12-22T03:55:52;0.80;;;0.80;;
11568;SDS011;5840;46.894;15.542;2023-12-22T03:58:18;0.87;;;0.87;;
11568;SDS011;5840;46.894;15.542;2023-12-22T04:00:45;1.10;;;1.10;;
11568;SDS011;5840;46.894;15.542;2023-12-22T04:03:12;1.20;;;1.20;;
11568;SDS011;5840;46.894;15.542;2023-12-22T04:05:41;1.13;;;1.10;;
11568;SDS011;5840;46.894;15.542;2023-12-22T04:08:07;0.97;;;0.97;;
11568;SDS011;5840;46.894;15.542;2023-12-22T04:10:34;2.53;;;1.60;;
11568;SDS011;5840;46.894;15.542;2023-12-22T04:13:01;1.10;;;1.10;;
11568;SDS011;5840;46.894;15.542;2023-12-22T04:15:28;1.00;;;1.00;;
11568;SDS011;5840;46.894;15.542;2023-12-22T04:17:55;1.00;;;1.00;;
11568;SDS011;5840;46.894;15.542;2023-12-22T04:20:22;0.90;;;0.90;;
11568;SDS011;5840;46.894;15.542;2023-12-22T04:22:50;0.90;;;0.90;;
11568;SDS011;5840;46.894;15.542;2023-12-22T04:25:17;0.87;;;0.87;;
11568;SDS011;5840;46.894;15.542;2023-12-22T04:27:44;1.00;;;1.00;;
11568;SDS011;5840;46.894;15.542;2023-12-22T04:30:11;1.20;;;1.10;;
11568;SDS011;5840;46.894;15.542;2023-12-22T04:32:38;1.00;;;1.00;;
11568;SDS011;5840;46.894;15.542;2023-12-22T04:35:05;1.00;;;1.00;;
11568;SDS011;5840;46.894;15.542;2023-12-22T04:37:32;1.20;;;1.20;;
11568;SDS011;5840;46.894;15.542;2023-12-22T04:40:01;1.30;;;1.30;;
11568;SDS011;5840;46.894;15.542;2023-12-22T04:42:28;1.43;;;1.20;;
11568;SDS011;5840;46.894;15.542;2023-12-22T04:44:55;1.30;;;1.30;;
11568;SDS011;5840;46.894;15.542;2023-12-22T04:47:22;1.20;;;1.20;;
11568;SDS011;5840;46.894;15.542;2023-12-22T04:49:50;1.27;;;1.00;;
11568;SDS011;5840;46.894;15.542;2023-12-22T04:52:17;0.90;;;0.90;;
11568;SDS011;5840;46.894;15.542;2023-12-22T04:54:44;0.87;;;0.87;;
11568;SDS011;5840;46.894;15.542;2023-12-22T04:57:12;0.90;;;0.90;;
11568;SDS011;5840;46.894;15.542;2023-12-22T04:59:39;0.80;;;0.80;;
11568;SDS011;5840;46.894;15.542;2023-12-22T05:02:06;0.90;;;0.90;;
11568;SDS011;5840;46.894;15.542;2023-12-22T05:04:33;0.90;;;0.90;;
11568;SDS011;5840;46.894;15.542;2023-12-22T05:06:59;0.80;;;0.80;;
11568;SDS011;5840;46.894;15.542;2023-12-22T05:09:31;0.90;;;0.90;;
11568;SDS011;5840;46.894;15.542;2023-12-22T05:11:58;0.93;;;0.93;;
11568;SDS011;5840;46.894;15.542;2023-12-22T05:14:27;0.80;;;0.80;;
11568;SDS011;5840;46.894;15.542;2023-12-22T05:16:53;0.90;;;0.90;;
11568;SDS011;5840;46.894;15.542;2023-12-22T05:19:22;0.80;;;0.80;;
11568;SDS011;5840;46.894;15.542;2023-12-22T05:21:48;0.90;;;0.90;;
11568;SDS011;5840;46.894;15.542;2023-12-22T05:24:17;0.80;;;0.80;;
11568;SDS011;5840;46.894;15.542;2023-12-22T05:26:44;0.80;;;0.80;;
11568;SDS011;5840;46.894;15.542;2023-12-22T05:29:11;0.80;;;0.80;;
11568;SDS011;5840;46.894;15.542;2023-12-22T05:31:39;0.80;;;0.80;;
11568;SDS011;5840;46.894;15.542;2023-12-22T05:34:06;1.10;;;1.10;;
11568;SDS011;5840;46.894;15.542;2023-12-22T05:36:35;1.03;;;1.03;;
11568;SDS011;5840;46.894;15.542;2023-12-22T05:39:02;0.87;;;0.87;;
11568;SDS011;5840;46.894;15.542;2023-12-22T05:41:29;0.87;;;0.87;;
11568;SDS011;5840;46.894;15.542;2023-12-22T05:43:56;0.90;;;0.90;;
11568;SDS011;5840;46.894;15.542;2023-12-22T05:46:23;0.90;;;0.90;;
11568;SDS011;5840;46.894;15.542;2023-12-22T05:48:51;1.13;;;1.13;;
11568;SDS011;5840;46.894;15.542;2023-12-22T05:51:18;1.10;;;1.10;;
11568;SDS011;5840;46.894;15.542;2023-12-22T05:53:45;1.30;;;1.30;;
11568;SDS011;5840;46.894;15.542;2023-12-22T05:56:17;1.10;;;1.10;;
11568;SDS011;5840;46.894;15.542;2023-12-22T05:58:45;1.10;;;1.10;;
11568;SDS011;5840;46.894;15.542;2023-12-22T06:01:13;0.90;;;0.90;;
11568;SDS011;5840;46.894;15.542;2023-12-22T06:03:41;1.27;;;1.00;;
11568;SDS011;5840;46.894;15.542;2023-12-22T06:06:10;0.90;;;0.90;;
11568;SDS011;5840;46.894;15.542;2023-12-22T06:08:36;1.10;;;1.10;;
11568;SDS011;5840;46.894;15.542;2023-12-22T06:11:03;1.17;;;1.07;;
11568;SDS011;5840;46.894;15.542;2023-12-22T06:13:31;1.00;;;1.00;;
11568;SDS011;5840;46.894;15.542;2023-12-22T06:15:58;1.60;;;1.50;;
11568;SDS011;5840;46.894;15.542;2023-12-22T06:18:25;1.30;;;1.20;;
11568;SDS011;5840;46.894;15.542;2023-12-22T06:20:52;1.33;;;1.33;;
11568;SDS011;5840;46.894;15.542;2023-12-22T06:23:20;1.30;;;1.30;;
11568;SDS011;5840;46.894;15.542;2023-12-22T06:25:47;1.20;;;1.20;;
11568;SDS011;5840;46.894;15.542;2023-12-22T06:28:14;1.20;;;1.20;;
11568;SDS011;5840;46.894;15.542;2023-12-22T06:30:42;1.17;;;1.17;;
11568;SDS011;5840;46.894;15.542;2023-12-22T06:33:12;1.30;;;1.30;;
11568;SDS011;5840;46.894;15.542;2023-12-22T06:35:39;1.43;;;1.43;;
11568;SDS011;5840;46.894;15.542;2023-12-22T06:38:06;1.10;;;1.10;;
11568;SDS011;5840;46.894;15.542;2023-12-22T06:40:35;1.30;;;1.30;;
11568;SDS011;5840;46.894;15.542;2023-12-22T06:43:02;1.10;;;1.10;;
11568;SDS011;5840;46.894;15.542;2023-12-22T06:45:29;1.10;;;1.10;;
11568;SDS011;5840;46.894;15.542;2023-12-22T06:47:56;1.43;;;1.43;;
11568;SDS011;5840;46.894;15.542;2023-12-22T06:50:23;1.30;;;1.30;;
11568;SDS011;5840;46.894;15.542;2023-12-22T06:52:50;1.77;;;1.67;;
11568;SDS011;5840;46.894;15.542;2023-12-22T06:55:17;1.50;;;1.40;;
11568;SDS011;5840;46.894;15.542;2023-12-22T06:57:45;1.30;;;1.30;;
11568;SDS011;5840;46.894;15.542;2023-12-22T07:00:12;1.73;;;1.63;;
11568;SDS011;5840;46.894;15.542;2023-12-22T07:02:40;1.50;;;1.50;;
11568;SDS011;5840;46.894;15.542;2023-12-22T07:08:01;1.60;;;1.50;;
11568;SDS011;5840;46.894;15.542;2023-12-22T07:10:29;1.70;;;1.60;;
11568;SDS011;5840;46.894;15.542;2023-12-22T07:12:57;1.37;;;1.37;;
11568;SDS011;5840;46.894;15.542;2023-12-22T07:15:24;2.60;;;2.00;;
11568;SDS011;5840;46.894;15.542;2023-12-22T07:17:51;1.57;;;1.50;;
11568;SDS011;5840;46.894;15.542;2023-12-22T07:20:18;1.67;;;1.57;;
11568;SDS011;5840;46.894;15.542;2023-12-22T07:22:45;1.50;;;1.40;;
11568;SDS011;5840;46.894;15.542;2023-12-22T07:25:12;1.30;;;1.30;;
11568;SDS011;5840;46.894;15.542;2023-12-22T07:27:39;1.27;;;1.20;;
11568;SDS011;5840;46.894;15.542;2023-12-22T07:30:08;1.63;;;1.53;;
11568;SDS011;5840;46.894;15.542;2023-12-22T07:32:40;1.30;;;1.30;;
11568;SDS011;5840;46.894;15.542;2023-12-22T07:35:09;1.47;;;1.43;;
11568;SDS011;5840;46.894;15.542;2023-12-22T07:37:36;1.20;;;1.20;;
11568;SDS011;5840;46.894;15.542;2023-12-22T07:40:03;1.00;;;1.00;;
11568;SDS011;5840;46.894;15.542;2023-12-22T07:42:31;1.17;;;1.17;;
11568;SDS011;5840;46.894;15.542;2023-12-22T07:44:57;1.23;;;1.23;;
11568;SDS011;5840;46.894;15.542;2023-12-22T07:47:26;1.40;;;1.33;;
11568;SDS011;5840;46.894;15.542;2023-12-22T07:49:53;1.07;;;1.07;;
11568;SDS011;5840;46.894;15.542;2023-12-22T07:52:19;1.27;;;1.07;;
11568;SDS011;5840;46.894;15.542;2023-12-22T07:54:46;1.10;;;1.10;;
11568;SDS011;5840;46.894;15.542;2023-12-22T07:57:13;1.00;;;1.00;;
11568;SDS011;5840;46.894;15.542;2023-12-22T07:59:40;1.17;;;1.17;;
11568;SDS011;5840;46.894;15.542;2023-12-22T08:02:07;1.97;;;1.10;;
11568;SDS011;5840;46.894;15.542;2023-12-22T08:04:35;2.23;;;1.30;;
11568;SDS011;5840;46.894;15.542;2023-12-22T08:07:02;1.17;;;1.17;;
11568;SDS011;5840;46.894;15.542;2023-12-22T08:09:30;1.43;;;1.20;;
11568;SDS011;5840;46.894;15.542;2023-12-22T08:11:58;1.40;;;1.40;;
11568;SDS011;5840;46.894;15.542;2023-12-22T08:14:24;1.30;;;1.30;;
11568;SDS011;5840;46.894;15.542;2023-12-22T08:16:51;1.20;;;1.20;;
11568;SDS011;5840;46.894;15.542;2023-12-22T08:19:18;1.20;;;1.20;;
11568;SDS011;5840;46.894;15.542;2023-12-22T08:21:47;1.10;;;1.10;;
11568;SDS011;5840;46.894;15.542;2023-12-22T08:24:14;1.10;;;1.10;;
11568;SDS011;5840;46.894;15.542;2023-12-22T08:26:42;1.07;;;1.07;;
11568;SDS011;5840;46.894;15.542;2023-12-22T08:29:09;1.00;;;1.00;;
11568;SDS011;5840;46.894;15.542;2023-12-22T08:31:36;1.10;;;1.10;;
11568;SDS011;5840;46.894;15.542;2023-12-22T08:34:03;1.17;;;1.17;;
11568;SDS011;5840;46.894;15.542;2023-12-22T08:36:30;1.20;;;1.20;;
11568;SDS011;5840;46.894;15.542;2023-12-22T08:38:58;1.00;;;1.00;;
11568;SDS011;5840;46.894;15.542;2023-12-22T08:41:25;1.00;;;1.00;;
11568;SDS011;5840;46.894;15.542;2023-12-22T08:43:53;0.90;;;0.90;;
11568;SDS011;5840;46.894;15.542;2023-12-22T08:46:19;1.03;;;1.03;;
11568;SDS011;5840;46.894;15.542;2023-12-22T08:48:46;1.03;;;1.03;;
11568;SDS011;5840;46.894;15.542;2023-12-22T08:51:13;1.00;;;1.00;;
11568;SDS011;5840;46.894;15.542;2023-12-22T08:53:40;0.90;;;0.90;;
11568;SDS011;5840;46.894;15.542;2023-12-22T08:56:08;1.00;;;1.00;;
11568;SDS011;5840;46.894;15.542;2023-12-22T08:58:35;1.00;;;1.00;;
11568;SDS011;5840;46.894;15.542;2023-12-22T09:01:02;1.17;;;1.17;;
11568;SDS011;5840;46.894;15.542;2023-12-22T09:03:30;1.30;;;1.30;;
11568;SDS011;5840;46.894;15.542;2023-12-22T09:06:00;1.20;;;1.20;;
11568;SDS011;5840;46.894;15.542;2023-12-22T09:08:28;1.30;;;1.30;;
11568;SDS011;5840;46.894;15.542;2023-12-22T09:10:54;1.23;;;1.23;;
11568;SDS011;5840;46.894;15.542;2023-12-22T09:13:23;1.43;;;1.40;;
11568;SDS011;5840;46.894;15.542;2023-12-22T09:15:50;1.00;;;1.00;;
11568;SDS011;5840;46.894;15.542;2023-12-22T09:18:18;1.70;;;1.60;;
11568;SDS011;5840;46.894;15.542;2023-12-22T09:20:45;2.33;;;2.13;;
11568;SDS011;5840;46.894;15.542;2023-12-22T09:23:12;2.40;;;2.20;;
11568;SDS011;5840;46.894;15.542;2023-12-22T09:25:39;2.47;;;2.37;;
11568;SDS011;5840;46.894;15.542;2023-12-22T09:28:06;2.63;;;2.43;;
11568;SDS011;5840;46.894;15.542;2023-12-22T09:30:34;2.73;;;2.53;;
11568;SDS011;5840;46.894;15.542;2023-12-22T09:33:01;2.47;;;2.33;;
11568;SDS011;5840;46.894;15.542;2023-12-22T09:35:28;2.33;;;2.07;;
11568;SDS011;5840;46.894;15.542;2023-12-22T09:37:55;2.30;;;1.63;;
11568;SDS011;5840;46.894;15.542;2023-12-22T09:40:21;1.53;;;1.43;;
11568;SDS011;5840;46.894;15.542;2023-12-22T09:42:49;1.77;;;1.67;;
11568;SDS011;5840;46.894;15.542;2023-12-22T09:45:16;1.70;;;1.60;;
11568;SDS011;5840;46.894;15.542;2023-12-22T09:47:46;1.73;;;1.63;;
11568;SDS011;5840;46.894;15.542;2023-12-22T09:50:14;1.40;;;1.40;;
11568;SDS011;5840;46.894;15.542;2023-12-22T09:52:42;1.70;;;1.60;;
11568;SDS011;5840;46.894;15.542;2023-12-22T09:55:10;1.83;;;1.73;;
11568;SDS011;5840;46.894;15.542;2023-12-22T09:57:38;1.50;;;1.50;;
11568;SDS011;5840;46.894;15.542;2023-12-22T10:00:06;1.53;;;1.43;;
11568;SDS011;5840;46.894;15.542;2023-12-22T10:02:37;1.70;;;1.60;;
11568;SDS011;5840;46.894;15.542;2023-12-22T10:05:06;2.10;;;1.50;;
11568;SDS011;5840;46.894;15.542;2023-12-22T10:07:33;1.43;;;1.40;;
11568;SDS011;5840;46.894;15.542;2023-12-22T10:10:01;1.30;;;1.30;;
11568;SDS011;5840;46.894;15.542;2023-12-22T10:12:30;1.30;;;1.30;;
11568;SDS011;5840;46.894;15.542;2023-12-22T10:15:00;1.50;;;1.50;;
11568;SDS011;5840;46.894;15.542;2023-12-22T10:17:28;1.30;;;1.30;;
11568;SDS011;5840;46.894;15.542;2023-12-22T10:19:56;1.57;;;1.47;;
11568;SDS011;5840;46.894;15.542;2023-12-22T10:22:24;1.63;;;1.63;;
11568;SDS011;5840;46.894;15.542;2023-12-22T10:24:51;1.70;;;1.60;;
11568;SDS011;5840;46.894;15.542;2023-12-22T10:27:18;1.73;;;1.63;;
11568;SDS011;5840;46.894;15.542;2023-12-22T10:29:48;1.77;;;1.67;;
11568;SDS011;5840;46.894;15.542;2023-12-22T10:32:16;1.40;;;1.40;;
11568;SDS011;5840;46.894;15.542;2023-12-22T10:34:43;1.67;;;1.57;;
11568;SDS011;5840;46.894;15.542;2023-12-22T10:37:10;2.87;;;2.40;;
11568;SDS011;5840;46.894;15.542;2023-12-22T10:39:39;2.63;;;2.50;;
11568;SDS011;5840;46.894;15.542;2023-12-22T10:42:06;2.63;;;2.30;;
11568;SDS011;5840;46.894;15.542;2023-12-22T10:44:33;3.13;;;2.10;;
11568;SDS011;5840;46.894;15.542;2023-12-22T10:47:00;2.00;;;1.90;;
11568;SDS011;5840;46.894;15.542;2023-12-22T10:49:28;2.40;;;2.10;;
11568;SDS011;5840;46.894;15.542;2023-12-22T10:51:57;3.20;;;2.97;;
11568;SDS011;5840;46.894;15.542;2023-12-22T10:54:25;6.90;;;3.07;;
11568;SDS011;5840;46.894;15.542;2023-12-22T10:56:53;3.20;;;2.97;;
11568;SDS011;5840;46.894;15.542;2023-12-22T10:59:23;3.40;;;2.90;;
11568;SDS011;5840;46.894;15.542;2023-12-22T11:01:54;3.57;;;3.33;;
11568;SDS011;5840;46.894;15.542;2023-12-22T11:04:25;3.90;;;3.60;;
11568;SDS011;5840;46.894;15.542;2023-12-22T11:06:56;3.40;;;3.20;;
11568;SDS011;5840;46.894;15.542;2023-12-22T11:09:24;3.40;;;3.10;;
11568;SDS011;5840;46.894;15.542;2023-12-22T11:11:59;3.60;;;3.30;;
11568;SDS011;5840;46.894;15.542;2023-12-22T11:14:28;3.70;;;3.40;;
11568;SDS011;5840;46.894;15.542;2023-12-22T11:16:57;3.33;;;3.03;;
11568;SDS011;5840;46.894;15.542;2023-12-22T11:19:27;3.10;;;2.90;;
11568;SDS011;5840;46.894;15.542;2023-12-22T11:21:57;3.37;;;3.17;;
11568;SDS011;5840;46.894;15.542;2023-12-22T11:24:25;2.93;;;2.73;;
11568;SDS011;5840;46.894;15.542;2023-12-22T11:26:55;3.20;;;3.00;;
11568;SDS011;5840;46.894;15.542;2023-12-22T11:29:26;3.27;;;3.03;;
11568;SDS011;5840;46.894;15.542;2023-12-22T11:31:54;2.57;;;2.37;;
11568;SDS011;5840;46.894;15.542;2023-12-22T11:34:22;2.40;;;2.20;;
11568;SDS011;5840;46.894;15.542;2023-12-22T11:36:52;2.33;;;2.10;;
11568;SDS011;5840;46.894;15.542;2023-12-22T11:39:20;2.00;;;1.90;;
11568;SDS011;5840;46.894;15.542;2023-12-22T11:41:48;2.63;;;2.50;;
11568;SDS011;5840;46.894;15.542;2023-12-22T11:44:18;2.10;;;2.00;;
11568;SDS011;5840;46.894;15.542;2023-12-22T11:46:46;1.90;;;1.70;;
11568;SDS011;5840;46.894;15.542;2023-12-22T11:49:13;1.90;;;1.80;;
11568;SDS011;5840;46.894;15.542;2023-12-22T11:51:40;2.20;;;2.03;;
11568;SDS011;5840;46.894;15.542;2023-12-22T11:57:10;1.40;;;1.40;;
11568;SDS011;5840;46.894;15.542;2023-12-22T11:59:57;1.57;;;1.47;;
11568;SDS011;5840;46.894;15.542;2023-12-22T12:02:29;1.37;;;1.37;;
11568;SDS011;5840;46.894;15.542;2023-12-22T12:04:57;1.20;;;1.20;;
11568;SDS011;5840;46.894;15.542;2023-12-22T12:07:43;1.43;;;1.43;;
11568;SDS011;5840;46.894;15.542;2023-12-22T12:10:12;1.70;;;1.60;;
11568;SDS011;5840;46.894;15.542;2023-12-22T12:13:09;1.10;;;1.10;;
11568;SDS011;5840;46.894;15.542;2023-12-22T12:15:38;1.10;;;1.10;;
11568;SDS011;5840;46.894;15.542;2023-12-22T12:18:07;1.00;;;1.00;;
11568;SDS011;5840;46.894;15.542;2023-12-22T12:20:35;1.13;;;1.13;;
11568;SDS011;5840;46.894;15.542;2023-12-22T12:23:02;1.00;;;1.00;;
11568;SDS011;5840;46.894;15.542;2023-12-22T12:25:30;1.30;;;1.07;;
11568;SDS011;5840;46.894;15.542;2023-12-22T12:28:01;1.10;;;1.10;;
11568;SDS011;5840;46.894;15.542;2023-12-22T12:30:29;0.97;;;0.97;;
11568;SDS011;5840;46.894;15.542;2023-12-22T12:33:05;1.20;;;1.20;;
11568;SDS011;5840;46.894;15.542;2023-12-22T12:35:34;1.20;;;1.20;;
11568;SDS011;5840;46.894;15.542;2023-12-22T12:38:02;1.10;;;1.10;;
11568;SDS011;5840;46.894;15.542;2023-12-22T12:40:31;1.37;;;1.37;;
11568;SDS011;5840;46.894;15.542;2023-12-22T12:43:00;0.90;;;0.90;;
11568;SDS011;5840;46.894;15.542;2023-12-22T12:45:29;1.07;;;1.07;;
11568;SDS011;5840;46.894;15.542;2023-12-22T12:47:56;0.90;;;0.90;;
11568;SDS011;5840;46.894;15.542;2023-12-22T12:50:26;0.80;;;0.80;;
11568;SDS011;5840;46.894;15.542;2023-12-22T12:52:56;1.10;;;1.00;;
11568;SDS011;5840;46.894;15.542;2023-12-22T12:55:25;0.80;;;0.80;;
11568;SDS011;5840;46.894;15.542;2023-12-22T12:57:54;1.00;;;1.00;;
11568;SDS011;5840;46.894;15.542;2023-12-22T13:00:25;1.00;;;1.00;;
11568;SDS011;5840;46.894;15.542;2023-12-22T13:02:53;1.07;;;1.07;;
11568;SDS011;5840;46.894;15.542;2023-12-22T13:05:22;2.13;;;1.17;;
11568;SDS011;5840;46.894;15.542;2023-12-22T13:07:52;1.00;;;1.00;;
11568;SDS011;5840;46.894;15.542;2023-12-22T13:10:35;1.60;;;1.60;;
11568;SDS011;5840;46.894;15.542;2023-12-22T13:13:04;1.50;;;1.50;;
11568;SDS011;5840;46.894;15.542;2023-12-22T13:15:32;1.17;;;1.17;;
11568;SDS011;5840;46.894;15.542;2023-12-22T13:18:08;2.00;;;1.90;;
11568;SDS011;5840;46.894;15.542;2023-12-22T13:20:36;2.37;;;2.27;;
11568;SDS011;5840;46.894;15.542;2023-12-22T13:23:05;2.33;;;2.23;;
11568;SDS011;5840;46.894;15.542;2023-12-22T13:25:37;2.17;;;2.07;;
11568;SDS011;5840;46.894;15.542;2023-12-22T13:28:08;2.27;;;2.17;;
11568;SDS011;5840;46.894;15.542;2023-12-22T13:30:37;1.70;;;1.60;;
11568;SDS011;5840;46.894;15.542;2023-12-22T13:33:07;1.20;;;1.20;;
11568;SDS011;5840;46.894;15.542;2023-12-22T13:35:34;1.60;;;1.50;;
11568;SDS011;5840;46.894;15.542;2023-12-22T13:38:06;1.70;;;1.60;;
11568;SDS011;5840;46.894;15.542;2023-12-22T13:40:36;1.50;;;1.43;;
11568;SDS011;5840;46.894;15.542;2023-12-22T13:43:04;1.20;;;1.20;;
11568;SDS011;5840;46.894;15.542;2023-12-22T13:45:32;1.70;;;1.60;;
11568;SDS011;5840;46.894;15.542;2023-12-22T13:48:00;1.60;;;1.53;;
11568;SDS011;5840;46.894;15.542;2023-12-22T13:50:28;1.43;;;1.43;;
11568;SDS011;5840;46.894;15.542;2023-12-22T13:53:08;1.33;;;1.33;;
11568;SDS011;5840;46.894;15.542;2023-12-22T13:55:37;1.17;;;1.17;;
11568;SDS011;5840;46.894;15.542;2023-12-22T13:58:06;1.70;;;1.50;;
11568;SDS011;5840;46.894;15.542;2023-12-22T14:00:34;1.23;;;1.23;;
11568;SDS011;5840;46.894;15.542;2023-12-22T14:03:04;1.30;;;1.17;;
11568;SDS011;5840;46.894;15.542;2023-12-22T14:05:32;1.27;;;1.27;;
11568;SDS011;5840;46.894;15.542;2023-12-22T14:08:00;1.30;;;1.20;;
11568;SDS011;5840;46.894;15.542;2023-12-22T14:10:29;1.10;;;1.10;;
11568;SDS011;5840;46.894;15.542;2023-12-22T14:12:57;1.43;;;1.40;;
11568;SDS011;5840;46.894;15.542;2023-12-22T14:15:26;1.00;;;1.00;;
11568;SDS011;5840;46.894;15.542;2023-12-22T14:17:54;1.07;;;1.07;;
11568;SDS011;5840;46.894;15.542;2023-12-22T14:20:22;1.23;;;1.23;;
11568;SDS011;5840;46.894;15.542;2023-12-22T14:22:52;1.30;;;1.20;;
11568;SDS011;5840;46.894;15.542;2023-12-22T14:25:20;1.20;;;1.20;;
11568;SDS011;5840;46.894;15.542;2023-12-22T14:27:52;1.50;;;1.40;;
11568;SDS011;5840;46.894;15.542;2023-12-22T14:30:24;2.77;;;2.57;;
11568;SDS011;5840;46.894;15.542;2023-12-22T14:32:52;4.20;;;3.90;;
11568;SDS011;5840;46.894;15.542;2023-12-22T14:35:20;4.70;;;4.30;;
11568;SDS011;5840;46.894;15.542;2023-12-22T14:37:48;3.30;;;3.10;;
11568;SDS011;5840;46.894;15.542;2023-12-22T14:40:21;3.30;;;3.10;;
11568;SDS011;5840;46.894;15.542;2023-12-22T14:42:52;1.90;;;1.80;;
11568;SDS011;5840;46.894;15.542;2023-12-22T14:45:20;1.50;;;1.50;;
11568;SDS011;5840;46.894;15.542;2023-12-22T14:47:51;2.03;;;1.93;;
11568;SDS011;5840;46.894;15.542;2023-12-22T14:50:20;1.90;;;1.80;;
11568;SDS011;5840;46.894;15.542;2023-12-22T14:52:49;1.67;;;1.57;;
11568;SDS011;5840;46.894;15.542;2023-12-22T14:55:17;1.30;;;1.30;;
11568;SDS011;5840;46.894;15.542;2023-12-22T14:57:47;1.80;;;1.70;;
11568;SDS011;5840;46.894;15.542;2023-12-22T15:00:17;3.10;;;2.80;;
11568;SDS011;5840;46.894;15.542;2023-12-22T15:02:48;2.70;;;2.50;;